Peoga, Indiana
Current Conditions -  °F | °C
As of 2:15 PM on Friday 21 Nov 2014 (Local Time) from K1II Reporting Station
Clear Clear  
Wind Chill: -2°   Ceiling: Unl
Heat Index:   Visibility: 10mi
Dew Point: -13°   Wind: 6mph
Humidity: 35%   Direction: 110°ESE
Pressure: 30.45"   Gusts: NA
Location:  39.3709°N, 86.1938°W
Report Text: K1II 211915Z AUTO 11005KT 10SM CLR 01/M13 A3045 RMK AO2
Loading
Personal Weather Stations






























Interactive Weather Map New forecast layout! Learn more

10-Day Weather Forecast

Advertisements
Track Severe Weather on mobile